Time;durP1;ratioP1;P1;durP2;ratioP2;P2;SDS_P1;SDS_P2;PMS_P1;PMS_P2;Temp;Humidity;BMP_temperature;BMP_pressure;BME280_temperature;BME280_humidity;BME280_pressure;Samples;Min_cycle;Max_cycle;Signal;HPM_P1;HPM_P2
2023/08/05 00:00:39;;;;;;;0.10;0.10;;;15.30;99.90;;;;;;4982022;28;20224;-52
2023/08/05 00:03:06;;;;;;;1.03;0.30;;;15.20;99.90;;;;;;4987756;28;20200;-52
2023/08/05 00:05:33;;;;;;;0.37;0.10;;;15.20;99.90;;;;;;4989392;28;20266;-53
2023/08/05 00:08:00;;;;;;;0.10;0.10;;;15.30;99.90;;;;;;4993463;28;20731;-52
2023/08/05 00:10:27;;;;;;;0.10;0.10;;;15.20;99.90;;;;;;4988357;28;20283;-52
2023/08/05 00:12:58;;;;;;;0.60;0.40;;;15.20;99.90;;;;;;4994538;28;20262;-52
2023/08/05 00:15:25;;;;;;;0.23;0.23;;;15.30;99.90;;;;;;4993678;28;20262;-52
2023/08/05 00:17:52;;;;;;;0.50;0.20;;;15.30;99.90;;;;;;4987509;28;20204;-55
2023/08/05 00:20:19;;;;;;;0.20;0.20;;;15.30;99.90;;;;;;4991031;28;20235;-53
2023/08/05 00:22:46;;;;;;;0.27;0.20;;;15.30;99.90;;;;;;4992315;28;20266;-52
2023/08/05 00:25:13;;;;;;;0.20;0.20;;;15.30;99.90;;;;;;4985704;28;20192;-53
2023/08/05 00:27:40;;;;;;;0.20;0.20;;;15.30;99.90;;;;;;4995401;28;20282;-52
2023/08/05 00:30:09;;;;;;;0.87;0.20;;;15.40;99.90;;;;;;4985483;28;20279;-53
2023/08/05 00:32:36;;;;;;;0.53;0.20;;;15.40;99.90;;;;;;4990601;28;20200;-52
2023/08/05 00:35:04;;;;;;;0.10;0.10;;;15.40;99.90;;;;;;4993023;28;20215;-53
2023/08/05 00:37:32;;;;;;;0.10;0.10;;;15.40;99.90;;;;;;4988266;28;20215;-52
2023/08/05 00:39:59;;;;;;;0.20;0.20;;;15.40;99.90;;;;;;4992553;28;20767;-52
2023/08/05 00:42:27;;;;;;;0.30;0.30;;;15.50;99.90;;;;;;4992621;28;20497;-53
2023/08/05 00:44:54;;;;;;;0.77;0.77;;;15.40;99.90;;;;;;4994408;28;20224;-53
2023/08/05 00:47:23;;;;;;;2.20;1.00;;;15.50;99.90;;;;;;4983897;28;20200;-53
2023/08/05 00:49:52;;;;;;;0.30;0.30;;;15.50;99.90;;;;;;4993625;28;20584;-53
2023/08/05 00:52:21;;;;;;;0.30;0.30;;;15.50;99.90;;;;;;4993433;28;20203;-52
2023/08/05 00:54:49;;;;;;;0.40;0.40;;;15.50;99.90;;;;;;4994007;28;20227;-52
2023/08/05 00:57:18;;;;;;;0.60;0.60;;;15.60;99.90;;;;;;4993830;28;20212;-52
2023/08/05 00:59:45;;;;;;;0.40;0.30;;;15.60;99.90;;;;;;4984641;28;20274;-53
2023/08/05 01:02:12;;;;;;;0.73;0.30;;;15.50;99.90;;;;;;4986880;28;20200;-52
2023/08/05 01:04:41;;;;;;;0.67;0.50;;;15.50;99.90;;;;;;4991591;28;20207;-53
2023/08/05 01:07:08;;;;;;;0.30;0.30;;;15.50;99.90;;;;;;4991094;28;20260;-52
2023/08/05 01:09:35;;;;;;;0.40;0.40;;;15.50;99.90;;;;;;4986922;28;20328;-52
2023/08/05 01:12:03;;;;;;;1.00;0.30;;;15.50;99.90;;;;;;4992936;28;20283;-52
2023/08/05 01:14:31;;;;;;;0.33;0.33;;;15.50;99.90;;;;;;4987104;28;20221;-52
2023/08/05 01:16:58;;;;;;;0.40;0.40;;;15.40;99.90;;;;;;4983483;28;20215;-52
2023/08/05 01:19:27;;;;;;;0.70;0.70;;;15.50;99.90;;;;;;4991618;28;20207;-52
2023/08/05 01:22:08;;;;;;;1.30;1.30;;;15.50;99.90;;;;;;4992976;28;20274;-52
2023/08/05 01:24:42;;;;;;;1.63;1.53;;;15.40;99.90;;;;;;4985051;28;20573;-53
2023/08/05 01:27:11;;;;;;;3.97;1.83;;;15.50;99.90;;;;;;4981504;28;20245;-53
2023/08/05 01:29:38;;;;;;;1.47;1.47;;;15.50;99.90;;;;;;4987980;28;20200;-52
2023/08/05 01:32:07;;;;;;;2.13;2.03;;;15.40;99.90;;;;;;4994304;28;20228;-52
2023/08/05 01:34:34;;;;;;;2.20;2.10;;;15.50;99.90;;;;;;4991975;28;20282;-53
2023/08/05 01:37:01;;;;;;;4.37;3.37;;;15.50;99.90;;;;;;4991679;28;20208;-52
2023/08/05 01:39:28;;;;;;;2.20;2.10;;;15.40;99.90;;;;;;4985300;28;20220;-53
2023/08/05 01:41:55;;;;;;;3.30;3.00;;;15.50;99.90;;;;;;4988533;28;20616;-52
2023/08/05 01:44:24;;;;;;;3.77;3.57;;;15.50;99.90;;;;;;4991746;28;20243;-53
2023/08/05 01:46:50;;;;;;;4.67;4.37;;;15.60;99.90;;;;;;4991422;28;20208;-53
2023/08/05 01:49:17;;;;;;;4.90;4.50;;;15.70;99.90;;;;;;4991547;28;20207;-52
2023/08/05 01:51:44;;;;;;;5.93;5.43;;;15.70;99.90;;;;;;4992465;28;20294;-52
2023/08/05 01:54:11;;;;;;;7.60;6.00;;;15.60;99.90;;;;;;4993274;28;20203;-52
2023/08/05 01:56:38;;;;;;;6.33;5.73;;;15.60;99.90;;;;;;4991823;28;20200;-52
2023/08/05 01:59:05;;;;;;;8.23;6.60;;;15.60;99.90;;;;;;4993328;28;20231;-52
2023/08/05 02:01:44;;;;;;;5.57;4.97;;;15.60;99.90;;;;;;4986227;28;20221;-52
2023/08/05 02:04:12;;;;;;;5.40;5.03;;;15.50;99.90;;;;;;4986857;28;20235;-52
2023/08/05 02:06:39;;;;;;;6.93;5.33;;;15.50;99.90;;;;;;4991757;28;20286;-52
2023/08/05 02:09:06;;;;;;;6.00;5.50;;;15.50;99.90;;;;;;4989204;28;20718;-52
2023/08/05 02:11:33;;;;;;;6.67;5.97;;;15.60;99.90;;;;;;4986770;28;20287;-52
2023/08/05 02:14:00;;;;;;;6.97;6.27;;;15.50;99.90;;;;;;4993167;28;20196;-52
2023/08/05 02:16:27;;;;;;;7.27;6.37;;;15.50;99.90;;;;;;4992718;28;20231;-52
2023/08/05 02:18:55;;;;;;;8.53;6.63;;;15.50;99.90;;;;;;4991472;28;20706;-52
2023/08/05 02:21:23;;;;;;;6.27;5.67;;;15.50;99.90;;;;;;4992114;28;20685;-52
2023/08/05 02:23:50;;;;;;;7.93;7.33;;;15.50;99.90;;;;;;4991643;28;20698;-52
2023/08/05 02:26:17;;;;;;;6.83;6.23;;;15.60;99.90;;;;;;4991649;28;20236;-52
2023/08/05 02:28:45;;;;;;;8.20;6.07;;;15.60;99.90;;;;;;4991357;28;20259;-52
2023/08/05 02:31:12;;;;;;;6.07;5.57;;;15.50;99.90;;;;;;4988233;28;20219;-52
2023/08/05 02:33:40;;;;;;;5.53;4.53;;;15.40;99.90;;;;;;4988295;28;20215;-52
2023/08/05 02:36:09;;;;;;;4.63;4.27;;;15.40;99.90;;;;;;4991764;28;20227;-52
2023/08/05 02:38:36;;;;;;;4.13;3.83;;;15.30;99.90;;;;;;4989877;28;20250;-53
2023/08/05 02:41:07;;;;;;;4.67;4.37;;;15.40;99.90;;;;;;4991956;28;20297;-52
2023/08/05 02:43:34;;;;;;;4.07;3.77;;;15.30;99.90;;;;;;4992738;28;20206;-52
2023/08/05 02:46:01;;;;;;;4.30;4.00;;;15.30;99.90;;;;;;4992344;28;20629;-53
2023/08/05 02:48:29;;;;;;;4.33;4.10;;;15.30;99.90;;;;;;4991047;28;20204;-52
2023/08/05 02:50:56;;;;;;;5.67;5.20;;;15.30;99.90;;;;;;4983385;28;20366;-52
2023/08/05 02:53:25;;;;;;;6.03;4.20;;;15.30;99.90;;;;;;4989816;28;20211;-52
2023/08/05 02:55:52;;;;;;;5.60;5.20;;;15.30;99.90;;;;;;4989924;28;20216;-52
2023/08/05 02:58:19;;;;;;;5.43;4.93;;;15.30;99.90;;;;;;4991834;28;20203;-52
2023/08/05 03:00:46;;;;;;;6.13;4.90;;;15.30;99.90;;;;;;4991491;28;20224;-52
2023/08/05 03:03:14;;;;;;;5.33;4.83;;;15.30;99.90;;;;;;4983886;28;20238;-53
2023/08/05 03:05:41;;;;;;;8.53;5.70;;;15.30;99.90;;;;;;4983315;28;20246;-52
2023/08/05 03:08:10;;;;;;;5.53;5.03;;;15.30;99.90;;;;;;4983518;28;20223;-52
2023/08/05 03:10:39;;;;;;;6.13;5.73;;;15.30;99.90;;;;;;4991290;28;20815;-52
2023/08/05 03:13:06;;;;;;;5.50;5.00;;;15.20;99.90;;;;;;4983089;28;20719;-52
2023/08/05 03:15:34;;;;;;;6.77;5.20;;;15.20;99.90;;;;;;4991561;28;20515;-52
2023/08/05 03:18:01;;;;;;;7.20;5.03;;;15.20;99.90;;;;;;4987276;28;20206;-53
2023/08/05 03:20:30;;;;;;;10.37;6.00;;;15.20;99.90;;;;;;4991112;28;20639;-52
2023/08/05 03:22:57;;;;;;;6.57;5.93;;;15.20;99.90;;;;;;4989384;28;20295;-52
2023/08/05 03:25:26;;;;;;;6.00;5.50;;;15.20;99.90;;;;;;4990528;28;20259;-52
2023/08/05 03:27:57;;;;;;;7.70;6.33;;;15.20;99.90;;;;;;4990372;28;20207;-52
2023/08/05 03:30:24;;;;;;;6.00;5.50;;;15.20;99.90;;;;;;4982229;28;20744;-52
2023/08/05 03:32:54;;;;;;;8.03;7.13;;;15.20;99.90;;;;;;4991683;28;20208;-52
2023/08/05 03:35:21;;;;;;;8.43;6.97;;;15.20;99.90;;;;;;4989604;28;20249;-52
2023/08/05 03:37:48;;;;;;;7.13;5.23;;;15.20;99.90;;;;;;4987206;28;20682;-52
2023/08/05 03:40:15;;;;;;;6.80;6.30;;;15.30;99.90;;;;;;4990119;28;20235;-52
2023/08/05 03:42:42;;;;;;;6.77;6.13;;;15.30;99.90;;;;;;4983047;28;20251;-52
2023/08/05 03:45:11;;;;;;;7.90;7.20;;;15.20;99.90;;;;;;4991712;28;20735;-52
2023/08/05 03:47:38;;;;;;;8.23;7.37;;;15.20;99.90;;;;;;4990422;28;20207;-52
2023/08/05 03:50:08;;;;;;;8.17;7.17;;;15.30;99.90;;;;;;4991738;28;20301;-52
2023/08/05 03:52:35;;;;;;;6.70;6.03;;;15.30;99.90;;;;;;4989126;28;20203;-52
2023/08/05 03:55:03;;;;;;;7.07;6.47;;;15.20;99.90;;;;;;4991740;28;20258;-52
2023/08/05 03:57:30;;;;;;;8.47;6.93;;;15.20;99.90;;;;;;4984528;28;20291;-52
2023/08/05 03:59:58;;;;;;;12.87;7.20;;;15.30;99.90;;;;;;4990358;28;20451;-53
2023/08/05 04:02:26;;;;;;;7.10;6.00;;;15.30;99.90;;;;;;4991637;28;20246;-52
2023/08/05 04:04:53;;;;;;;7.73;7.03;;;15.30;99.90;;;;;;4990023;28;20204;-52
2023/08/05 04:07:22;;;;;;;10.03;7.17;;;15.30;99.90;;;;;;4985773;28;20262;-52
2023/08/05 04:09:51;;;;;;;6.90;6.33;;;15.30;99.90;;;;;;4987706;28;20204;-52
2023/08/05 04:12:18;;;;;;;6.60;6.00;;;15.40;99.90;;;;;;4991540;28;20216;-52
2023/08/05 04:14:45;;;;;;;13.10;7.47;;;15.40;99.90;;;;;;4988715;28;20204;-52
2023/08/05 04:17:14;;;;;;;8.00;7.20;;;15.30;99.90;;;;;;4988242;28;20586;-51
2023/08/05 04:19:43;;;;;;;9.10;7.37;;;15.40;99.90;;;;;;4991458;28;20833;-52
2023/08/05 04:22:10;;;;;;;7.87;6.60;;;15.40;99.90;;;;;;4991502;28;20363;-52
2023/08/05 04:24:37;;;;;;;8.30;7.50;;;15.40;99.90;;;;;;4990578;28;20212;-52
2023/08/05 04:27:05;;;;;;;7.43;6.70;;;15.40;99.90;;;;;;4991708;28;20199;-52
2023/08/05 04:29:32;;;;;;;8.43;7.73;;;15.30;99.90;;;;;;4991410;28;20275;-52
2023/08/05 04:31:59;;;;;;;7.73;6.73;;;15.30;99.90;;;;;;4991132;28;20293;-52
2023/08/05 04:34:26;;;;;;;6.40;5.77;;;15.40;99.90;;;;;;4991540;28;20208;-52
2023/08/05 04:36:54;;;;;;;7.40;6.77;;;15.40;99.90;;;;;;4991472;28;20223;-52
2023/08/05 04:39:22;;;;;;;7.60;6.90;;;15.40;99.90;;;;;;4991535;28;20204;-52
2023/08/05 04:41:49;;;;;;;7.53;6.67;;;15.40;99.90;;;;;;4991064;28;20787;-52
2023/08/05 04:44:16;;;;;;;7.20;6.60;;;15.30;99.90;;;;;;4990971;28;20208;-51
2023/08/05 04:46:43;;;;;;;7.13;6.20;;;15.30;99.90;;;;;;4990080;28;20630;-52
2023/08/05 04:49:11;;;;;;;5.80;5.30;;;15.30;99.90;;;;;;4991127;28;20192;-52
2023/08/05 04:51:38;;;;;;;6.50;5.87;;;15.30;99.90;;;;;;4990605;28;20224;-52
2023/08/05 04:54:07;;;;;;;5.57;5.17;;;15.30;99.90;;;;;;4994136;28;20290;-52
2023/08/05 04:56:34;;;;;;;5.77;5.30;;;15.30;99.90;;;;;;5033341;23;20234;-55
2023/08/05 04:59:01;;;;;;;6.37;5.73;;;15.30;99.90;;;;;;5034008;28;20226;-54
2023/08/05 05:01:29;;;;;;;6.20;5.63;;;15.20;99.90;;;;;;5034592;28;20571;-54
2023/08/05 05:03:55;;;;;;;6.73;6.10;;;15.20;99.90;;;;;;5044776;28;20201;-55
2023/08/05 05:06:22;;;;;;;7.23;5.57;;;15.20;99.90;;;;;;5027238;28;20219;-54
2023/08/05 05:08:49;;;;;;;5.77;5.17;;;15.10;99.90;;;;;;5034598;28;20207;-54
2023/08/05 05:11:18;;;;;;;6.07;5.20;;;15.20;99.90;;;;;;5033987;28;20738;-54
2023/08/05 05:13:47;;;;;;;5.97;5.50;;;15.20;99.90;;;;;;5034152;28;20265;-55
2023/08/05 05:16:14;;;;;;;7.57;5.90;;;15.20;99.90;;;;;;5034229;28;20654;-55
2023/08/05 05:18:41;;;;;;;6.13;5.63;;;15.10;99.90;;;;;;5034513;28;20211;-55
2023/08/05 05:21:07;;;;;;;5.63;5.03;;;15.10;99.90;;;;;;5028831;28;20203;-55
2023/08/05 05:23:34;;;;;;;5.73;5.30;;;15.10;99.90;;;;;;5029552;28;20194;-54
2023/08/05 05:26:01;;;;;;;5.30;4.90;;;15.00;99.90;;;;;;5033953;28;20588;-55
2023/08/05 05:28:30;;;;;;;6.70;5.50;;;15.10;99.90;;;;;;5034308;28;20548;-55
2023/08/05 05:30:58;;;;;;;7.40;6.00;;;15.10;99.90;;;;;;5034041;28;20206;-55
2023/08/05 05:33:25;;;;;;;5.97;5.37;;;15.10;99.90;;;;;;5033569;28;20673;-54
2023/08/05 05:35:52;;;;;;;6.70;6.10;;;15.20;99.90;;;;;;5031500;28;20218;-54
2023/08/05 05:38:18;;;;;;;7.73;6.40;;;15.10;99.90;;;;;;5033733;28;20286;-54
2023/08/05 05:40:45;;;;;;;6.73;6.23;;;15.10;99.90;;;;;;5033757;28;20199;-54
2023/08/05 05:43:12;;;;;;;7.20;6.37;;;15.10;99.90;;;;;;5033750;28;20256;-54
2023/08/05 05:45:41;;;;;;;6.60;6.07;;;15.00;99.90;;;;;;5033728;28;20199;-55
2023/08/05 05:48:08;;;;;;;8.00;7.30;;;15.10;99.90;;;;;;5033864;28;20242;-54
2023/08/05 05:50:39;;;;;;;5.60;5.17;;;15.10;99.90;;;;;;5025675;28;20557;-55
2023/08/05 05:53:06;;;;;;;7.83;6.73;;;15.10;99.90;;;;;;5033025;28;20199;-54
2023/08/05 05:55:33;;;;;;;6.80;6.30;;;15.20;99.90;;;;;;5033515;28;20742;-54
2023/08/05 05:58:00;;;;;;;6.97;6.40;;;15.20;99.90;;;;;;5033595;28;20232;-54
2023/08/05 06:00:27;;;;;;;7.83;7.03;;;15.30;99.90;;;;;;5033680;28;20210;-54
2023/08/05 06:02:57;;;;;;;7.17;6.60;;;15.20;99.90;;;;;;5033286;28;20229;-54
2023/08/05 06:05:24;;;;;;;7.47;6.67;;;15.30;99.90;;;;;;5025248;28;20231;-54
2023/08/05 06:07:54;;;;;;;7.67;7.07;;;15.40;99.90;;;;;;5030792;28;20594;-54
2023/08/05 06:10:21;;;;;;;7.50;6.40;;;15.40;99.90;;;;;;5033751;28;20203;-55
2023/08/05 06:12:48;;;;;;;7.40;6.80;;;15.50;99.90;;;;;;5033022;28;20668;-54
2023/08/05 06:15:15;;;;;;;7.13;6.53;;;15.50;99.90;;;;;;5033419;28;20202;-54
2023/08/05 06:17:42;;;;;;;7.20;5.97;;;15.60;99.90;;;;;;5031901;28;20222;-55
2023/08/05 06:20:11;;;;;;;6.70;6.07;;;15.50;99.90;;;;;;5024730;28;20195;-55
2023/08/05 06:22:38;;;;;;;6.70;6.10;;;15.60;99.90;;;;;;5032978;28;20680;-54
2023/08/05 06:25:06;;;;;;;6.07;5.30;;;15.60;99.90;;;;;;5032851;28;20226;-54
2023/08/05 06:27:33;;;;;;;6.80;6.27;;;15.60;99.90;;;;;;5032874;28;20222;-54
2023/08/05 06:30:00;;;;;;;6.10;5.60;;;15.60;99.90;;;;;;5032929;28;20245;-54
2023/08/05 06:32:27;;;;;;;6.47;6.07;;;15.60;99.90;;;;;;5031423;28;20217;-55
2023/08/05 06:34:54;;;;;;;6.03;5.43;;;15.60;99.90;;;;;;5024731;28;20206;-54
2023/08/05 06:37:22;;;;;;;6.30;5.70;;;15.60;99.90;;;;;;5032635;28;20791;-54
2023/08/05 06:39:49;;;;;;;6.10;5.50;;;15.60;99.90;;;;;;5032699;28;20198;-54
2023/08/05 06:42:16;;;;;;;8.70;6.47;;;15.60;99.90;;;;;;5032165;28;20210;-55
2023/08/05 06:44:44;;;;;;;7.30;6.57;;;15.60;99.90;;;;;;5032636;28;20627;-54
2023/08/05 06:47:11;;;;;;;6.20;5.67;;;15.60;99.90;;;;;;5027731;28;20219;-54
2023/08/05 06:49:38;;;;;;;5.40;4.90;;;15.70;99.90;;;;;;5026874;28;20253;-54
2023/08/05 06:52:06;;;;;;;5.73;5.23;;;15.60;99.90;;;;;;5028797;28;20199;-54
2023/08/05 06:54:34;;;;;;;6.53;5.93;;;15.70;99.90;;;;;;5032598;28;20291;-55
2023/08/05 06:57:01;;;;;;;5.70;5.17;;;15.70;99.90;;;;;;5031992;28;20222;-54
2023/08/05 06:59:28;;;;;;;6.17;5.67;;;15.70;99.90;;;;;;5032320;28;20202;-54
2023/08/05 07:01:55;;;;;;;6.00;5.50;;;15.70;99.90;;;;;;5032367;28;20568;-54
2023/08/05 07:04:22;;;;;;;6.83;6.23;;;15.70;99.90;;;;;;5032234;28;20257;-54
2023/08/05 07:06:49;;;;;;;6.53;5.83;;;15.70;99.90;;;;;;5013013;28;20219;-54
2023/08/05 07:09:16;;;;;;;7.37;5.43;;;15.70;99.90;;;;;;5028599;28;20276;-54
2023/08/05 07:11:45;;;;;;;6.23;5.43;;;15.70;99.90;;;;;;5032108;28;20292;-54
2023/08/05 07:14:12;;;;;;;8.63;6.83;;;15.70;99.90;;;;;;5031978;28;20268;-54
2023/08/05 07:16:39;;;;;;;7.57;5.83;;;15.70;99.90;;;;;;5031365;28;20692;-54
2023/08/05 07:19:06;;;;;;;8.30;5.27;;;15.70;99.90;;;;;;5032233;28;20206;-54
2023/08/05 07:21:33;;;;;;;5.60;5.10;;;15.70;99.90;;;;;;5031079;28;20255;-54
2023/08/05 07:23:59;;;;;;;7.73;5.73;;;15.70;99.90;;;;;;5032461;28;20203;-55
2023/08/05 07:26:26;;;;;;;6.73;4.97;;;15.70;99.90;;;;;;5032065;28;20222;-54
2023/08/05 07:28:55;;;;;;;5.50;5.03;;;15.70;99.90;;;;;;5031705;28;20568;-54
2023/08/05 07:31:22;;;;;;;5.87;5.23;;;15.60;99.90;;;;;;5030886;28;20207;-54
2023/08/05 07:33:51;;;;;;;5.20;4.70;;;15.60;99.90;;;;;;5029476;28;20203;-55
2023/08/05 07:36:22;;;;;;;7.23;5.73;;;15.60;99.90;;;;;;5028739;28;20229;-54
2023/08/05 07:38:51;;;;;;;5.87;4.77;;;15.60;99.90;;;;;;5029184;28;20665;-55
2023/08/05 07:41:20;;;;;;;5.83;5.33;;;15.70;99.90;;;;;;5029853;28;20584;-54
2023/08/05 07:43:47;;;;;;;5.67;5.17;;;15.70;99.90;;;;;;5022794;28;20293;-55
2023/08/05 07:46:16;;;;;;;6.37;5.50;;;15.70;99.90;;;;;;5030096;28;20225;-54
2023/08/05 07:48:46;;;;;;;7.17;5.27;;;15.80;99.90;;;;;;5029367;28;20668;-55
2023/08/05 07:51:13;;;;;;;6.80;5.60;;;15.80;99.90;;;;;;5030950;28;20203;-54
2023/08/05 07:53:41;;;;;;;5.20;4.90;;;15.80;99.90;;;;;;5022394;28;20202;-54
2023/08/05 07:56:12;;;;;;;6.53;5.57;;;15.90;99.90;;;;;;5021906;28;20226;-54
2023/08/05 07:58:42;;;;;;;6.07;5.57;;;16.00;99.90;;;;;;5026522;28;20673;-54
2023/08/05 08:01:11;;;;;;;6.03;5.63;;;16.30;99.90;;;;;;5024134;28;20211;-55
2023/08/05 08:03:41;;;;;;;6.23;5.40;;;16.80;99.90;;;;;;5021128;28;20206;-54
2023/08/05 08:06:08;;;;;;;4.27;3.90;;;17.40;99.90;;;;;;5022522;28;20219;-54
2023/08/05 08:08:35;;;;;;;4.80;4.50;;;17.90;99.90;;;;;;5027532;28;20207;-54
2023/08/05 08:11:02;;;;;;;5.13;4.70;;;18.40;99.90;;;;;;5026470;28;21093;-55
2023/08/05 08:13:29;;;;;;;4.40;4.20;;;18.50;99.90;;;;;;5018775;28;20214;-55
2023/08/05 08:15:56;;;;;;;5.83;5.03;;;18.80;99.90;;;;;;5026196;28;20712;-54
2023/08/05 08:18:23;;;;;;;5.87;5.37;;;18.80;99.90;;;;;;5028124;28;20276;-54
2023/08/05 08:20:52;;;;;;;5.67;5.17;;;18.80;99.90;;;;;;5028706;28;20564;-55
2023/08/05 08:23:19;;;;;;;5.10;4.70;;;18.80;99.90;;;;;;5023532;28;20301;-55
2023/08/05 08:25:46;;;;;;;5.70;5.23;;;18.90;99.90;;;;;;5023059;28;20199;-55
2023/08/05 08:28:13;;;;;;;5.83;5.43;;;18.80;99.90;;;;;;5026981;28;20194;-55
2023/08/05 08:30:40;;;;;;;7.20;6.70;;;18.80;99.90;;;;;;5025084;28;20207;-55
2023/08/05 08:33:07;;;;;;;6.67;6.13;;;18.40;99.90;;;;;;5032646;28;20233;-54
2023/08/05 08:35:35;;;;;;;7.20;6.67;;;18.30;99.90;;;;;;5034913;28;20213;-55
2023/08/05 08:38:03;;;;;;;5.63;5.30;;;18.20;99.90;;;;;;5024733;28;20223;-55
2023/08/05 08:40:32;;;;;;;6.13;5.73;;;18.20;99.90;;;;;;5034120;28;20210;-55
2023/08/05 08:43:02;;;;;;;6.20;5.72;;;18.30;99.90;;;;;;5028068;28;21146;-54
2023/08/05 08:45:33;;;;;;;5.83;5.43;;;18.10;99.90;;;;;;5028831;28;20234;-67
2023/08/05 08:48:02;;;;;;;6.23;5.83;;;18.00;99.90;;;;;;5033550;28;20285;-65
2023/08/05 08:50:32;;;;;;;6.10;5.70;;;18.10;99.90;;;;;;5033435;28;20276;-63
2023/08/05 08:52:59;;;;;;;6.60;5.90;;;18.20;99.90;;;;;;5013551;28;20203;-67
2023/08/05 08:55:30;;;;;;;4.77;4.50;;;18.10;99.90;;;;;;5014237;28;20203;-68
2023/08/05 08:57:58;;;;;;;6.07;5.67;;;18.00;99.90;;;;;;5031554;28;20230;-63
2023/08/05 09:00:26;;;;;;;6.13;5.63;;;18.10;99.90;;;;;;5025936;28;20214;-63
2023/08/05 09:02:54;;;;;;;5.60;5.20;;;18.10;99.90;;;;;;5021960;28;20285;-63
2023/08/05 09:05:22;;;;;;;6.43;5.93;;;18.20;99.90;;;;;;5023169;28;20206;-64
2023/08/05 09:07:50;;;;;;;5.30;5.00;;;18.30;99.90;;;;;;5020284;28;20725;-64
2023/08/05 09:10:17;;;;;;;6.83;4.60;;;18.40;99.90;;;;;;5033981;28;20650;-65
2023/08/05 09:12:46;;;;;;;5.77;5.23;;;18.40;99.90;;;;;;5033936;28;20569;-66
2023/08/05 09:15:16;;;;;;;4.70;4.40;;;18.60;99.90;;;;;;5028570;28;20252;-66
2023/08/05 09:17:44;;;;;;;5.37;4.90;;;18.50;99.90;;;;;;5025274;28;20726;-65
2023/08/05 09:20:16;;;;;;;5.50;5.00;;;18.20;99.90;;;;;;5023836;28;20576;-63
2023/08/05 09:22:56;;;;;;;5.97;5.57;;;18.20;99.90;;;;;;5023213;28;20206;-65
2023/08/05 09:25:23;;;;;;;8.03;6.17;;;17.90;99.90;;;;;;5025134;28;20556;-65
2023/08/05 09:27:53;;;;;;;6.73;6.07;;;17.90;99.90;;;;;;5023804;28;20272;-62
2023/08/05 09:30:21;;;;;;;6.20;5.70;;;17.80;99.90;;;;;;5023396;28;20858;-63
2023/08/05 09:32:49;;;;;;;5.80;5.50;;;17.50;99.90;;;;;;5024075;28;20229;-63
2023/08/05 09:35:17;;;;;;;6.80;6.20;;;17.30;99.90;;;;;;5025708;28;20210;-63
2023/08/05 09:37:48;;;;;;;7.70;7.20;;;17.40;99.90;;;;;;5020791;28;20223;-64
2023/08/05 09:40:17;;;;;;;7.17;6.53;;;17.40;99.90;;;;;;5024233;28;20205;-63
2023/08/05 09:42:48;;;;;;;8.17;7.53;;;17.30;99.90;;;;;;5023530;28;20234;-65
2023/08/05 09:45:17;;;;;;;7.57;6.80;;;17.20;99.90;;;;;;5024543;28;20268;-62
2023/08/05 09:47:47;;;;;;;6.93;6.43;;;17.20;99.90;;;;;;5023732;28;20215;-61
2023/08/05 09:50:15;;;;;;;7.80;7.20;;;17.20;99.90;;;;;;5024930;28;20207;-62
2023/08/05 09:52:43;;;;;;;7.00;6.33;;;17.20;99.90;;;;;;5021281;28;20265;-65
2023/08/05 09:55:13;;;;;;;7.33;5.53;;;17.30;99.90;;;;;;5023702;28;20202;-67
2023/08/05 09:57:41;;;;;;;7.33;6.83;;;17.30;99.90;;;;;;5024117;28;20322;-63
2023/08/05 10:00:11;;;;;;;6.20;5.77;;;17.40;99.90;;;;;;5021289;28;20202;-64
2023/08/05 10:02:41;;;;;;;6.37;5.97;;;17.30;99.90;;;;;;5020052;28;20285;-64
2023/08/05 10:05:10;;;;;;;9.03;6.53;;;17.40;99.90;;;;;;5033292;28;20210;-63
2023/08/05 10:07:39;;;;;;;7.13;6.63;;;17.20;99.90;;;;;;5032848;28;20269;-64
2023/08/05 10:10:09;;;;;;;7.30;6.63;;;17.10;99.90;;;;;;5033193;28;20285;-67
2023/08/05 10:12:41;;;;;;;8.97;8.07;;;17.10;99.90;;;;;;5032183;28;20210;-64
2023/08/05 10:15:11;;;;;;;8.27;7.17;;;17.00;99.90;;;;;;5027147;28;20241;-67
2023/08/05 10:17:41;;;;;;;8.40;7.67;;;16.80;99.90;;;;;;5024420;28;20214;-63
2023/08/05 10:20:12;;;;;;;9.07;7.80;;;16.80;99.90;;;;;;5024316;28;20202;-63
2023/08/05 10:22:40;;;;;;;8.70;7.77;;;16.70;99.90;;;;;;5022574;28;20276;-66
2023/08/05 10:25:08;;;;;;;7.70;7.10;;;16.80;99.90;;;;;;5023398;28;20256;-64
2023/08/05 10:27:36;;;;;;;9.10;8.30;;;17.00;99.90;;;;;;5023455;28;20215;-66
2023/08/05 10:30:11;;;;;;;9.63;8.67;;;17.20;99.90;;;;;;5025516;28;20199;-65
2023/08/05 10:32:56;;;;;;;7.33;6.67;;;17.00;99.90;;;;;;5023609;28;20580;-54
2023/08/05 10:35:26;;;;;;;8.30;7.33;;;17.30;99.90;;;;;;5026623;28;20253;-54
2023/08/05 10:38:09;;;;;;;9.13;8.37;;;17.60;99.90;;;;;;5027204;28;20229;-55
2023/08/05 10:40:47;;;;;;;8.37;7.67;;;17.80;99.90;;;;;;5022147;28;20194;-54
2023/08/05 10:43:34;;;;;;;10.57;7.73;;;17.80;99.90;;;;;;5023881;28;20672;-54
2023/08/05 10:46:02;;;;;;;7.67;7.07;;;17.80;99.90;;;;;;5028492;28;20699;-55
2023/08/05 10:48:32;;;;;;;9.30;7.67;;;17.60;99.90;;;;;;5021499;28;20210;-54
2023/08/05 10:51:04;;;;;;;7.20;6.50;;;17.40;99.90;;;;;;5024573;28;20203;-55
2023/08/05 10:53:32;;;;;;;7.30;6.90;;;17.60;99.90;;;;;;5024854;28;20202;-55
2023/08/05 10:55:59;;;;;;;8.50;7.70;;;17.90;99.90;;;;;;5031112;28;20720;-62
2023/08/05 10:58:29;;;;;;;7.13;6.43;;;18.10;99.90;;;;;;5053006;23;20205;-59
2023/08/05 11:01:01;;;;;;;8.37;7.67;;;18.20;99.90;;;;;;5025464;28;20264;-58
2023/08/05 11:03:42;;;;;;;7.43;6.80;;;18.30;99.90;;;;;;5028236;28;20679;-57
2023/08/05 11:06:10;;;;;;;7.90;7.27;;;18.30;99.90;;;;;;5019255;28;20198;-56
2023/08/05 11:08:40;;;;;;;6.90;6.33;;;18.60;99.90;;;;;;5025032;28;20217;-56
2023/08/05 11:11:08;;;;;;;6.93;6.43;;;18.70;99.90;;;;;;5040307;28;21006;-56
2023/08/05 11:13:36;;;;;;;6.53;6.00;;;18.90;99.90;;;;;;5040974;28;20597;-55
2023/08/05 11:16:10;;;;;;;6.90;6.33;;;19.10;99.90;;;;;;5039898;28;20197;-56
2023/08/05 11:18:40;;;;;;;6.23;5.80;;;19.00;99.90;;;;;;5045888;28;20226;-58
2023/08/05 11:21:10;;;;;;;6.23;5.70;;;19.00;99.90;;;;;;5043224;28;20214;-53
2023/08/05 11:23:38;;;;;;;6.50;5.90;;;19.10;99.90;;;;;;5039328;28;20205;-52
2023/08/05 11:26:05;;;;;;;5.93;5.57;;;19.20;99.90;;;;;;5042285;28;20202;-53
2023/08/05 11:28:33;;;;;;;5.83;5.40;;;19.00;99.90;;;;;;5042629;28;20680;-57
2023/08/05 11:31:01;;;;;;;5.63;5.27;;;19.00;99.90;;;;;;5041599;28;20201;-55
2023/08/05 11:33:28;;;;;;;7.23;6.63;;;19.00;99.90;;;;;;5042401;28;20289;-56
2023/08/05 11:35:57;;;;;;;7.00;6.40;;;19.20;99.90;;;;;;5043372;28;20207;-57
2023/08/05 11:38:25;;;;;;;6.73;6.30;;;19.30;99.90;;;;;;5041294;28;20221;-57
2023/08/05 11:40:54;;;;;;;7.03;6.53;;;19.30;99.90;;;;;;5042308;28;20271;-55
2023/08/05 11:43:22;;;;;;;7.07;6.47;;;19.40;99.90;;;;;;5040893;28;20287;-56
2023/08/05 11:45:50;;;;;;;6.53;5.93;;;19.40;99.90;;;;;;5040040;28;20697;-57
2023/08/05 11:48:18;;;;;;;7.53;6.30;;;19.30;99.90;;;;;;5041617;28;20201;-57
2023/08/05 11:50:46;;;;;;;6.20;5.70;;;19.40;99.90;;;;;;5038789;28;20216;-56
2023/08/05 11:53:14;;;;;;;5.87;5.23;;;19.50;99.90;;;;;;5045050;28;20209;-55
2023/08/05 11:55:43;;;;;;;6.13;5.63;;;19.70;99.90;;;;;;5050011;28;20567;-58
2023/08/05 11:58:10;;;;;;;7.37;6.73;;;19.40;99.90;;;;;;5048183;28;20249;-57
2023/08/05 12:00:39;;;;;;;27.10;20.47;;;19.40;99.90;;;;;;5051402;28;20295;-58
2023/08/05 12:03:06;;;;;;;20.27;15.87;;;19.50;99.90;;;;;;5052445;28;20255;-57
2023/08/05 12:05:33;;;;;;;25.03;21.47;;;19.60;99.90;;;;;;5053886;28;20210;-57
2023/08/05 12:08:04;;;;;;;16.27;13.20;;;19.60;99.90;;;;;;5045592;28;20197;-58
2023/08/05 12:10:32;;;;;;;18.00;15.77;;;19.60;99.90;;;;;;5047131;28;20264;-56
2023/08/05 12:13:03;;;;;;;12.87;11.17;;;19.60;99.90;;;;;;5052271;28;20202;-57
2023/08/05 12:15:31;;;;;;;4.97;4.67;;;19.50;99.90;;;;;;5056435;28;20205;-58
2023/08/05 12:17:59;;;;;;;6.43;5.97;;;19.50;99.90;;;;;;5051611;28;20232;-58
2023/08/05 12:20:28;;;;;;;6.07;5.67;;;19.70;99.90;;;;;;5054438;28;20776;-58
2023/08/05 12:22:58;;;;;;;17.10;15.37;;;19.80;99.90;;;;;;5053117;28;20206;-59
2023/08/05 12:25:26;;;;;;;14.97;13.80;;;19.90;99.90;;;;;;5047435;28;20214;-57
2023/08/05 12:27:58;;;;;;;17.13;15.30;;;19.90;99.90;;;;;;5048908;28;20194;-58
2023/08/05 12:30:26;;;;;;;7.27;6.67;;;19.90;99.90;;;;;;5053004;28;20710;-58
2023/08/05 12:32:56;;;;;;;6.03;5.63;;;20.00;99.90;;;;;;5055220;28;20197;-57
2023/08/05 12:35:24;;;;;;;5.57;5.27;;;19.80;99.90;;;;;;5052125;28;20224;-58
2023/08/05 12:37:51;;;;;;;7.00;6.37;;;19.90;99.90;;;;;;5052838;28;20287;-57
2023/08/05 12:40:19;;;;;;;6.30;5.83;;;20.00;99.90;;;;;;5053489;28;20236;-57
2023/08/05 12:42:46;;;;;;;6.80;6.30;;;20.10;99.90;;;;;;5051442;28;20565;-57
2023/08/05 12:45:14;;;;;;;5.30;5.00;;;20.30;99.90;;;;;;5050177;28;20570;-59
2023/08/05 12:47:41;;;;;;;6.17;5.50;;;20.50;99.90;;;;;;5047113;28;20212;-57
2023/08/05 12:50:09;;;;;;;6.63;5.67;;;20.80;99.90;;;;;;5049742;28;20225;-56